Time;durP1;ratioP1;P1;durP2;ratioP2;P2;SDS_P1;SDS_P2;PMS_P1;PMS_P2;Temp;Humidity;BMP_temperature;BMP_pressure;BME280_temperature;BME280_humidity;BME280_pressure;Samples;Min_cycle;Max_cycle;Signal;HPM_P1;HPM_P2
2022/04/09 00:01:03;;;;;;;8.43;2.10;;;;;;;1.39;100.00;98116.38;7388085;19;20384;-45
2022/04/09 00:03:32;;;;;;;8.70;2.13;;;;;;;1.38;100.00;98114.66;7383274;19;20971;-45
2022/04/09 00:06:05;;;;;;;17.27;3.20;;;;;;;1.37;100.00;98119.69;7388494;19;20407;-43
2022/04/09 00:08:35;;;;;;;7.13;2.37;;;;;;;1.32;100.00;98116.97;7381297;19;20436;-45
2022/04/09 00:11:04;;;;;;;5.53;2.53;;;;;;;1.31;100.00;98115.25;7389135;19;20825;-48
2022/04/09 00:13:34;;;;;;;8.07;2.50;;;;;;;1.24;100.00;98126.88;7381770;19;20426;-46
2022/04/09 00:16:03;;;;;;;6.33;2.07;;;;;;;1.21;100.00;98126.75;7386313;19;20705;-45
2022/04/09 00:18:33;;;;;;;6.07;2.20;;;;;;;1.18;100.00;98131.72;7375871;19;20419;-43
2022/04/09 00:21:05;;;;;;;6.85;2.33;;;;;;;1.14;100.00;98140.91;7388026;19;20135;-45
2022/04/09 00:23:34;;;;;;;6.90;1.80;;;;;;;1.12;100.00;98132.34;7382342;19;20191;-46
2022/04/09 00:26:04;;;;;;;7.90;2.80;;;;;;;1.19;100.00;98134.31;7389884;19;20123;-48
2022/04/09 00:28:33;;;;;;;7.90;2.17;;;;;;;1.07;100.00;98144.88;7381307;19;20205;-44
2022/04/09 00:31:03;;;;;;;7.73;2.00;;;;;;;1.08;100.00;98141.53;7389761;19;20127;-44
2022/04/09 00:33:34;;;;;;;12.15;3.42;;;;;;;1.05;100.00;98145.63;7385887;19;20415;-50
2022/04/09 00:36:07;;;;;;;5.60;2.07;;;;;;;0.99;100.00;98146.28;7390253;19;20127;-49
2022/04/09 00:38:36;;;;;;;11.98;2.85;;;;;;;0.95;100.00;98144.41;7381972;19;20419;-48
2022/04/09 00:41:06;;;;;;;6.22;2.17;;;;;;;0.91;100.00;98156.13;7388584;19;20124;-47
2022/04/09 00:43:35;;;;;;;14.77;2.78;;;;;;;0.91;100.00;98153.59;7383912;19;20195;-45
2022/04/09 00:46:05;;;;;;;9.13;2.88;;;;;;;0.93;100.00;98156.19;7389777;19;20142;-51
2022/04/09 00:48:35;;;;;;;5.40;2.50;;;;;;;0.88;100.00;98165.31;7378064;19;20202;-44
2022/04/09 00:51:07;;;;;;;10.05;2.80;;;;;;;0.88;100.00;98168.69;7390124;19;20127;-50
2022/04/09 00:53:39;;;;;;;9.05;4.32;;;;;;;0.89;100.00;98175.53;7384300;19;20197;-46
2022/04/09 00:56:15;;;;;;;9.98;2.55;;;;;;;0.95;100.00;98169.81;7390193;19;20127;-43
2022/04/09 00:58:49;;;;;;;9.57;2.17;;;;;;;1.14;100.00;98168.84;7379450;19;20198;-46
2022/04/09 01:01:19;;;;;;;10.02;4.20;;;;;;;1.42;100.00;98152.06;7389337;19;20127;-45
2022/04/09 01:03:49;;;;;;;6.40;2.22;;;;;;;1.20;100.00;98156.38;7384568;19;20198;-47
2022/04/09 01:06:22;;;;;;;14.40;4.47;;;;;;;1.38;100.00;98159.53;7390292;19;20244;-45
2022/04/09 01:08:51;;;;;;;5.63;2.08;;;;;;;1.22;100.00;98169.13;7383065;19;20194;-49
2022/04/09 01:11:21;;;;;;;6.95;2.63;;;;;;;1.35;100.00;98162.84;7395940;19;20142;-49
2022/04/09 01:13:50;;;;;;;4.72;1.85;;;;;;;1.16;100.00;98174.84;7392564;19;20190;-46
2022/04/09 01:16:22;;;;;;;9.88;2.15;;;;;;;1.00;100.00;98188.63;7397925;19;20142;-47
2022/04/09 01:18:52;;;;;;;16.77;2.90;;;;;;;0.96;100.00;98194.38;7386625;19;20551;-44
2022/04/09 01:21:26;;;;;;;9.15;1.48;;;;;;;0.89;100.00;98200.03;7396228;19;20129;-43
2022/04/09 01:23:59;;;;;;;5.90;2.00;;;;;;;0.86;100.00;98210.09;7392630;19;20189;-45
2022/04/09 01:26:29;;;;;;;8.95;1.73;;;;;;;0.86;100.00;98210.94;7397914;19;20207;-45
2022/04/09 01:28:58;;;;;;;5.75;1.60;;;;;;;0.85;100.00;98216.81;7387394;19;20194;-44
2022/04/09 01:31:28;;;;;;;6.95;2.33;;;;;;;0.85;100.00;98216.81;7397665;19;20476;-45
2022/04/09 01:33:57;;;;;;;8.27;1.90;;;;;;;0.81;100.00;98222.56;7391872;19;20194;-48
2022/04/09 01:36:27;;;;;;;6.38;1.50;;;;;;;0.82;100.00;98221.75;7397248;19;20648;-45
2022/04/09 01:38:59;;;;;;;8.68;2.40;;;;;;;0.80;100.00;98221.72;7383874;19;20197;-49
2022/04/09 01:41:28;;;;;;;11.02;1.77;;;;;;;0.84;100.00;98217.63;7395559;19;20131;-47
2022/04/09 01:43:58;;;;;;;7.75;2.10;;;;;;;0.76;100.00;98219.84;7391433;19;20289;-46
2022/04/09 01:46:27;;;;;;;4.00;1.77;;;;;;;0.77;100.00;98225.81;7393548;19;20147;-47
2022/04/09 01:48:57;;;;;;;13.98;2.22;;;;;;;0.70;100.00;98233.97;7388121;19;20217;-47
2022/04/09 01:51:26;;;;;;;9.25;2.10;;;;;;;0.60;100.00;98228.53;7397449;19;20133;-49
2022/04/09 01:53:58;;;;;;;4.38;1.80;;;;;;;0.65;100.00;98224.50;7392549;19;20936;-47
2022/04/09 01:56:28;;;;;;;10.32;2.22;;;;;;;0.63;100.00;98228.66;7397364;19;20119;-45
2022/04/09 01:58:58;;;;;;;13.95;2.25;;;;;;;0.62;100.00;98231.97;7389792;19;20196;-45
2022/04/09 02:01:27;;;;;;;16.08;3.33;;;;;;;0.59;100.00;98236.06;7396115;19;20123;-49
2022/04/09 02:03:57;;;;;;;6.85;2.45;;;;;;;0.58;100.00;98237.75;7392680;19;20190;-45
2022/04/09 02:06:28;;;;;;;5.88;1.75;;;;;;;0.56;100.00;98246.09;7397209;19;20127;-46
2022/04/09 02:09:00;;;;;;;8.48;2.60;;;;;;;0.54;100.00;98248.56;7389715;19;20198;-52
2022/04/09 02:11:29;;;;;;;8.48;3.67;;;;;;;0.50;100.00;98247.59;7396828;19;20149;-49
2022/04/09 02:13:59;;;;;;;6.50;2.03;;;;;;;0.52;100.00;98250.19;7391516;19;20190;-47
2022/04/09 02:16:29;;;;;;;12.23;2.83;;;;;;;0.50;100.00;98262.81;7395944;19;20472;-47
2022/04/09 02:18:58;;;;;;;9.15;2.28;;;;;;;0.49;100.00;98265.28;7389608;19;20201;-48
2022/04/09 02:21:28;;;;;;;11.07;1.98;;;;;;;0.47;100.00;98271.97;7394928;19;20127;-49
2022/04/09 02:24:00;;;;;;;3.38;1.70;;;;;;;0.46;100.00;98270.22;7389645;19;20186;-48
2022/04/09 02:26:29;;;;;;;9.35;1.48;;;;;;;0.44;100.00;98270.16;7396477;19;20187;-50
2022/04/09 02:28:59;;;;;;;8.32;2.20;;;;;;;0.46;100.00;98270.22;7391579;19;20194;-44
2022/04/09 02:31:28;;;;;;;8.60;2.35;;;;;;;0.42;100.00;98278.50;7396396;19;20131;-45
2022/04/09 02:33:58;;;;;;;11.43;3.08;;;;;;;0.42;100.00;98283.59;7393113;19;20700;-45
2022/04/09 02:36:29;;;;;;;10.82;2.30;;;;;;;0.41;100.00;98277.63;7396174;19;20146;-44
2022/04/09 02:39:01;;;;;;;5.75;1.85;;;;;;;0.38;100.00;98282.59;7390318;19;20190;-46
2022/04/09 02:41:31;;;;;;;4.45;2.58;;;;;;;0.42;100.00;98286.13;7395350;19;20127;-46
2022/04/09 02:44:00;;;;;;;7.38;2.85;;;;;;;0.42;100.00;98284.47;7390659;19;20257;-42
2022/04/09 02:46:30;;;;;;;8.45;2.65;;;;;;;0.37;100.00;98286.78;7395703;19;20125;-45
2022/04/09 02:48:59;;;;;;;17.63;2.80;;;;;;;0.40;100.00;98284.41;7385024;19;20657;-46
2022/04/09 02:51:29;;;;;;;6.82;2.30;;;;;;;0.38;100.00;98297.81;7395595;19;20133;-46
2022/04/09 02:54:01;;;;;;;7.05;2.40;;;;;;;0.37;100.00;98296.09;7391005;19;20554;-49
2022/04/09 02:56:30;;;;;;;4.10;1.75;;;;;;;0.34;100.00;98294.28;7395298;19;20770;-44
2022/04/09 02:59:00;;;;;;;8.05;2.20;;;;;;;0.34;100.00;98306.97;7389491;19;20194;-45
2022/04/09 03:01:31;;;;;;;6.82;2.17;;;;;;;0.38;100.00;98308.84;7394993;19;20134;-44
2022/04/09 03:04:01;;;;;;;7.30;1.85;;;;;;;0.39;100.00;98307.16;7388791;19;20197;-45
2022/04/09 03:06:30;;;;;;;9.70;3.40;;;;;;;0.40;100.00;98309.75;7395064;19;20127;-47
2022/04/09 03:09:02;;;;;;;9.80;2.65;;;;;;;0.37;100.00;98317.22;7388834;19;20996;-44
2022/04/09 03:11:32;;;;;;;10.68;2.65;;;;;;;0.38;100.00;98319.00;7394839;19;20133;-44
2022/04/09 03:14:01;;;;;;;9.70;2.75;;;;;;;0.35;100.00;98333.19;7389252;19;20193;-43
2022/04/09 03:16:32;;;;;;;11.32;2.47;;;;;;;0.36;100.00;98330.72;7394746;19;20123;-46
2022/04/09 03:19:02;;;;;;;5.05;2.00;;;;;;;0.31;100.00;98327.09;7388061;19;20254;-45
2022/04/09 03:21:32;;;;;;;6.95;2.53;;;;;;;0.32;100.00;98333.06;7394234;19;20492;-45
2022/04/09 03:24:04;;;;;;;8.70;2.65;;;;;;;0.26;100.00;98338.75;7390134;19;20190;-47
2022/04/09 03:26:33;;;;;;;5.05;1.98;;;;;;;0.22;100.00;98336.88;7394592;19;20126;-45
2022/04/09 03:29:03;;;;;;;10.20;2.95;;;;;;;0.18;100.00;98340.94;7384211;19;20556;-46
2022/04/09 03:31:35;;;;;;;8.27;2.22;;;;;;;0.23;100.00;98348.75;7394358;19;20123;-46
2022/04/09 03:34:05;;;;;;;8.00;2.38;;;;;;;0.22;100.00;98341.94;7387837;19;20190;-46
2022/04/09 03:36:34;;;;;;;8.65;2.30;;;;;;;0.21;100.00;98347.81;7394175;19;20119;-47
2022/04/09 03:39:07;;;;;;;6.32;1.90;;;;;;;0.19;100.00;98351.94;7385894;19;20212;-43
2022/04/09 03:41:36;;;;;;;6.50;2.55;;;;;;;0.19;100.00;98354.47;7393800;19;20138;-44
2022/04/09 03:44:07;;;;;;;6.53;2.30;;;;;;;0.17;100.00;98361.16;7388900;19;20273;-46
2022/04/09 03:46:36;;;;;;;7.15;2.22;;;;;;;0.18;100.00;98365.41;7393838;19;20127;-49
2022/04/09 03:49:06;;;;;;;4.32;1.80;;;;;;;0.12;100.00;98366.88;7385248;19;20198;-46
2022/04/09 03:51:35;;;;;;;9.63;2.65;;;;;;;0.17;100.00;98372.19;7393626;19;20583;-49
2022/04/09 03:54:08;;;;;;;9.48;2.42;;;;;;;0.20;100.00;98376.53;7388588;19;20194;-49
2022/04/09 03:56:40;;;;;;;10.60;2.67;;;;;;;0.18;100.00;98375.56;7393313;19;20134;-48
2022/04/09 03:59:09;;;;;;;5.63;2.35;;;;;;;0.16;100.00;98387.31;7385392;19;20198;-48
2022/04/09 04:01:39;;;;;;;7.28;2.50;;;;;;;0.13;100.00;98393.13;7393204;19;20123;-44
2022/04/09 04:04:10;;;;;;;8.93;2.17;;;;;;;0.13;100.00;98398.19;7387511;19;20190;-45
2022/04/09 04:06:40;;;;;;;6.53;2.55;;;;;;;0.05;100.00;98400.38;7393236;19;20127;-48
2022/04/09 04:09:14;;;;;;;6.47;2.33;;;;;;;0.05;100.00;98399.50;7386120;19;20265;-48
2022/04/09 04:11:44;;;;;;;4.78;2.10;;;;;;;0.04;100.00;98403.69;7393031;19;20133;-49
2022/04/09 04:14:14;;;;;;;4.30;2.40;;;;;;;0.05;100.00;98405.44;7387407;19;20205;-45
2022/04/09 04:16:43;;;;;;;7.93;2.38;;;;;;;0.10;100.00;98419.19;7392987;19;20634;-46
2022/04/09 04:19:13;;;;;;;9.38;2.47;;;;;;;0.14;100.00;98425.28;7383560;19;20198;-47
2022/04/09 04:21:42;;;;;;;8.20;2.25;;;;;;;0.09;100.00;98417.47;7392766;19;20592;-47
2022/04/09 04:24:14;;;;;;;4.88;2.05;;;;;;;0.12;100.00;98424.34;7387620;19;20254;-45
2022/04/09 04:26:44;;;;;;;2.22;1.10;;;;;;;0.12;100.00;98427.75;7393128;19;20133;-50
2022/04/09 04:29:13;;;;;;;8.90;2.70;;;;;;;0.29;100.00;98426.81;7384752;19;20645;-47
2022/04/09 04:31:43;;;;;;;9.48;2.47;;;;;;;0.24;100.00;98431.66;7392542;19;20134;-46
2022/04/09 04:34:12;;;;;;;8.68;2.75;;;;;;;0.30;100.00;98433.59;7385854;19;20205;-45
2022/04/09 04:36:42;;;;;;;4.25;1.95;;;;;;;0.40;100.00;98434.09;7392423;19;20598;-45
2022/04/09 04:39:12;;;;;;;6.60;2.22;;;;;;;0.44;100.00;98445.25;7384451;19;20206;-45
2022/04/09 04:41:44;;;;;;;14.75;4.75;;;;;;;0.40;100.00;98451.84;7394743;19;20131;-47
2022/04/09 04:44:14;;;;;;;12.35;2.80;;;;;;;0.36;100.00;98456.72;7387991;19;20254;-45
2022/04/09 04:46:43;;;;;;;5.97;2.50;;;;;;;0.38;100.00;98457.66;7399612;19;20123;-46
2022/04/09 04:49:13;;;;;;;10.85;3.15;;;;;;;0.51;100.00;98459.09;7390723;19;20550;-45
2022/04/09 04:51:42;;;;;;;7.28;2.08;;;;;;;0.46;100.00;98458.00;7401200;19;20139;-48
2022/04/09 04:54:12;;;;;;;9.80;2.08;;;;;;;0.54;100.00;98474.44;7393407;19;20193;-50
2022/04/09 04:56:44;;;;;;;8.10;2.35;;;;;;;0.49;100.00;98474.25;7399164;19;20127;-49
2022/04/09 04:59:15;;;;;;;12.90;5.55;;;;;;;0.57;100.00;98476.25;7388998;19;20269;-46
2022/04/09 05:01:44;;;;;;;11.30;2.70;;;;;;;0.55;100.00;98481.25;7399220;19;20135;-46
2022/04/09 05:04:14;;;;;;;6.60;2.28;;;;;;;0.57;100.00;98484.75;7389957;19;20688;-51
2022/04/09 05:06:45;;;;;;;6.25;2.33;;;;;;;0.61;100.00;98504.38;7398691;19;20515;-50
2022/04/09 05:09:15;;;;;;;8.15;2.70;;;;;;;0.65;100.00;98503.72;7388325;19;20221;-52
2022/04/09 05:11:48;;;;;;;12.93;2.10;;;;;;;0.70;100.00;98500.50;7398818;19;20139;-47
2022/04/09 05:14:18;;;;;;;7.43;1.63;;;;;;;0.72;100.00;98512.47;7393993;19;20546;-50
2022/04/09 05:16:48;;;;;;;16.40;2.55;;;;;;;0.81;100.00;98517.09;7398586;19;20131;-45
2022/04/09 05:19:17;;;;;;;8.85;2.50;;;;;;;0.83;100.00;98519.69;7383627;19;20198;-46
2022/04/09 05:21:47;;;;;;;15.48;2.47;;;;;;;0.83;100.00;98515.50;7398934;19;20477;-49
2022/04/09 05:24:18;;;;;;;16.67;3.55;;;;;;;0.90;100.00;98525.13;7390850;19;20217;-45
2022/04/09 05:26:50;;;;;;;8.82;3.47;;;;;;;0.92;100.00;98535.38;7398392;19;20127;-46
2022/04/09 05:29:20;;;;;;;10.73;2.35;;;;;;;1.00;100.00;98541.66;7389148;19;20198;-45
2022/04/09 05:31:50;;;;;;;5.38;2.05;;;;;;;1.01;100.00;98539.97;7398117;19;20131;-44
2022/04/09 05:34:20;;;;;;;7.18;2.58;;;;;;;1.05;100.00;98542.72;7392707;19;20664;-49
2022/04/09 05:36:49;;;;;;;9.43;1.85;;;;;;;1.09;100.00;98556.44;7398016;19;20119;-44
2022/04/09 05:39:19;;;;;;;13.00;3.10;;;;;;;1.18;100.00;98561.03;7382134;19;20660;-44
2022/04/09 05:41:51;;;;;;;13.23;2.80;;;;;;;1.24;100.00;98558.78;7397772;19;20495;-45
2022/04/09 05:44:21;;;;;;;5.45;2.42;;;;;;;1.29;100.00;98569.13;7391283;19;20186;-43
2022/04/09 05:46:51;;;;;;;14.35;2.67;;;;;;;1.38;100.00;98577.16;7397566;19;20874;-46
2022/04/09 05:49:20;;;;;;;17.07;2.80;;;;;;;1.49;100.00;98577.63;7390313;19;20200;-47
2022/04/09 05:51:50;;;;;;;6.88;2.40;;;;;;;1.55;100.00;98585.53;7397425;19;20467;-45
2022/04/09 05:54:20;;;;;;;11.30;2.27;;;;;;;1.65;100.00;98589.31;7392219;19;20186;-50
2022/04/09 05:56:52;;;;;;;12.47;3.93;;;;;;;1.70;100.00;98608.16;7395469;19;20744;-42
2022/04/09 05:59:24;;;;;;;7.47;2.78;;;;;;;1.76;100.00;98602.50;7393105;19;20447;-49
2022/04/09 06:01:53;;;;;;;21.63;3.37;;;;;;;1.85;100.00;98617.28;7396868;19;20123;-49
2022/04/09 06:04:24;;;;;;;5.60;2.80;;;;;;;1.82;100.00;98612.91;7390500;19;20431;-46
2022/04/09 06:06:55;;;;;;;11.33;3.00;;;;;;;1.79;100.00;98627.19;7396970;19;20372;-46
2022/04/09 06:09:25;;;;;;;13.97;4.47;;;;;;;1.66;100.00;98638.47;7388233;19;20424;-47
2022/04/09 06:11:57;;;;;;;12.80;2.97;;;;;;;1.64;100.00;98635.00;7396812;19;20377;-45
2022/04/09 06:14:26;;;;;;;17.03;3.30;;;;;;;1.56;100.00;98652.47;7390047;19;20518;-45
2022/04/09 06:16:56;;;;;;;23.27;4.95;;;;;;;1.57;100.00;98636.41;7397036;19;20391;-44
2022/04/09 06:19:27;;;;;;;10.77;3.20;;;;;;;1.35;100.00;98640.56;7388051;19;20648;-45
2022/04/09 06:21:56;;;;;;;17.45;4.28;;;;;;;1.44;100.00;98633.31;7396477;19;20381;-46
2022/04/09 06:24:26;;;;;;;20.10;8.60;;;;;;;1.45;100.00;98634.22;7392557;19;20201;-45
2022/04/09 06:26:58;;;;;;;16.77;4.95;;;;;;;1.37;100.00;98636.41;7396221;19;20778;-51
2022/04/09 06:29:28;;;;;;;22.67;4.27;;;;;;;1.41;100.00;98635.75;7389290;19;20546;-46
2022/04/09 06:31:57;;;;;;;17.53;4.47;;;;;;;1.21;100.00;98645.00;7396183;19;20385;-49
2022/04/09 06:34:27;;;;;;;12.73;4.28;;;;;;;1.27;100.00;98644.44;7389055;19;20447;-46
2022/04/09 06:36:56;;;;;;;17.15;4.03;;;;;;;1.14;100.00;98653.16;7395957;19;20142;-45
2022/04/09 06:39:26;;;;;;;12.77;4.13;;;;;;;1.20;100.00;98643.28;7390038;19;20201;-47
2022/04/09 06:41:58;;;;;;;14.20;5.30;;;;;;;1.29;100.00;98632.66;7395786;19;20391;-47
2022/04/09 06:44:27;;;;;;;16.92;5.40;;;;;;;1.35;100.00;98643.09;7386955;19;20197;-43
2022/04/09 06:46:57;;;;;;;14.50;3.70;;;;;;;1.39;100.00;98655.13;7395622;19;20127;-44
2022/04/09 06:49:26;;;;;;;13.38;3.33;;;;;;;1.68;100.00;98647.03;7385923;19;20446;-43
2022/04/09 06:51:56;;;;;;;10.88;3.92;;;;;;;1.94;100.00;98645.63;7395556;19;20129;-45
2022/04/09 06:54:25;;;;;;;4.97;1.98;;;;;;;1.94;100.00;98647.31;7391642;19;20201;-45
2022/04/09 06:56:57;;;;;;;8.93;1.45;;;;;;;1.92;100.00;98639.63;7394086;19;20504;-44
2022/04/09 06:59:27;;;;;;;15.88;3.30;;;;;;;1.95;100.00;98629.56;7390086;19;20198;-46
2022/04/09 07:01:56;;;;;;;8.47;2.03;;;;;;;1.97;100.00;98635.59;7397967;19;20134;-45
2022/04/09 07:04:27;;;;;;;9.70;3.03;;;;;;;2.01;100.00;98647.63;7389061;19;20833;-49
2022/04/09 07:06:56;;;;;;;8.17;2.13;;;;;;;2.06;100.00;98639.31;7398522;19;20395;-47
2022/04/09 07:09:26;;;;;;;5.73;2.80;;;;;;;2.14;100.00;98651.56;7384469;19;20439;-50
2022/04/09 07:11:58;;;;;;;9.67;2.20;;;;;;;2.18;100.00;98660.19;7392443;19;21063;-45
2022/04/09 07:14:27;;;;;;;8.13;1.67;;;;;;;2.18;100.00;98655.09;7390551;19;20443;-47
2022/04/09 07:17:03;;;;;;;10.10;2.20;;;;;;;2.22;100.00;98654.44;7396578;19;20396;-46
2022/04/09 07:19:32;;;;;;;7.37;2.67;;;;;;;2.40;100.00;98659.41;7385613;19;20422;-47
2022/04/09 07:22:02;;;;;;;12.83;1.83;;;;;;;2.42;100.00;98659.47;7397109;19;20518;-45
2022/04/09 07:24:32;;;;;;;7.53;3.27;;;;;;;2.47;100.00;98669.81;7387812;19;20423;-44
2022/04/09 07:27:04;;;;;;;3.23;1.83;;;;;;;2.40;100.00;98682.31;7398470;19;20962;-47
2022/04/09 07:29:33;;;;;;;6.60;2.03;;;;;;;2.43;100.00;98674.78;7388218;19;20450;-47
2022/04/09 07:32:03;;;;;;;10.13;1.17;;;;;;;2.47;100.00;98680.91;7394122;19;20380;-48
2022/04/09 07:34:33;;;;;;;6.07;2.27;;;;;;;2.52;100.00;98676.84;7389082;19;20423;-44
2022/04/09 07:37:03;;;;;;;6.70;2.10;;;;;;;2.65;100.00;98700.25;7394164;19;20384;-46
2022/04/09 07:39:33;;;;;;;5.10;1.43;;;;;;;2.54;100.00;98705.78;7387193;19;20466;-47
2022/04/09 07:42:07;;;;;;;5.30;1.53;;;;;;;2.79;100.00;98696.59;7395919;19;20398;-48
2022/04/09 07:44:36;;;;;;;5.40;1.40;;;;;;;2.75;100.00;98707.47;7385286;19;20435;-45
2022/04/09 07:47:06;;;;;;;4.30;2.53;;;;;;;2.76;100.00;98693.91;7396625;19;20760;-46
2022/04/09 07:49:36;;;;;;;6.43;2.60;;;;;;;2.80;100.00;98700.88;7386055;19;20449;-49
2022/04/09 07:52:06;;;;;;;9.80;2.77;;;;;;;2.82;100.00;98703.50;7393588;19;20390;-48
2022/04/09 07:54:40;;;;;;;4.50;1.70;;;;;;;2.99;100.00;98710.91;7388689;19;20425;-43
2022/04/09 07:57:12;;;;;;;11.53;2.53;;;;;;;3.06;100.00;98708.69;7394717;19;20384;-46
2022/04/09 07:59:41;;;;;;;8.20;1.70;;;;;;;3.13;100.00;98706.38;7385748;19;20421;-51
2022/04/09 08:02:11;;;;;;;10.00;1.87;;;;;;;3.18;100.00;98709.97;7393082;19;20722;-51
2022/04/09 08:04:40;;;;;;;6.47;1.23;;;;;;;3.25;100.00;98722.13;7385656;19;20458;-46
2022/04/09 08:07:10;;;;;;;9.87;1.47;;;;;;;3.30;100.00;98707.91;7395371;19;20760;-47
2022/04/09 08:09:39;;;;;;;6.60;1.97;;;;;;;3.40;100.00;98713.31;7388200;19;20435;-45
2022/04/09 08:12:12;;;;;;;6.23;1.40;;;;;;;3.51;100.00;98722.25;7392898;19;20394;-46
2022/04/09 08:14:42;;;;;;;3.93;1.27;;;;;;;3.51;100.00;98735.88;7387373;19;20761;-48
2022/04/09 08:17:11;;;;;;;6.13;1.50;;;;;;;3.67;100.00;98710.94;7393291;19;20392;-47
2022/04/09 08:19:41;;;;;;;8.20;1.20;;;;;;;3.70;100.00;98730.59;7384183;19;20413;-45
2022/04/09 08:22:10;;;;;;;1.90;0.80;;;;;;;3.77;100.00;98732.56;7403962;19;20426;-47
2022/04/09 08:24:41;;;;;;;12.30;2.70;;;;;;;3.87;100.00;98729.53;7395574;19;20820;-51
2022/04/09 08:27:13;;;;;;;10.90;1.47;;;;;;;3.83;100.00;98727.69;7404519;19;20391;-45
2022/04/09 08:29:42;;;;;;;6.23;1.70;;;;;;;3.55;100.00;98734.31;7389838;19;20435;-45
2022/04/09 08:32:12;;;;;;;9.00;1.70;;;;;;;3.24;100.00;98734.00;7404628;19;20402;-45
2022/04/09 08:34:42;;;;;;;4.43;1.07;;;;;;;3.16;100.00;98726.88;7395859;19;20750;-44
2022/04/09 08:37:11;;;;;;;2.20;1.30;;;;;;;3.19;100.00;98732.09;7380930;19;20418;-52
2022/04/09 08:39:41;;;;;;;8.07;1.53;;;;;;;3.45;100.00;98748.41;7393546;19;20442;-49
2022/04/09 08:42:14;;;;;;;5.73;1.60;;;;;;;3.61;100.00;98741.31;7399906;19;20392;-45
2022/04/09 08:44:43;;;;;;;5.50;1.50;;;;;;;3.70;100.00;98756.09;7394032;19;20431;-44
2022/04/09 08:47:15;;;;;;;8.07;1.50;;;;;;;3.86;100.00;98743.09;7403078;19;20718;-50
2022/04/09 08:49:47;;;;;;;4.57;1.87;;;;;;;4.09;100.00;98742.19;7386739;19;20405;-45
2022/04/09 08:52:18;;;;;;;1.80;1.07;;;;;;;4.21;100.00;98741.75;7399470;19;20412;-45
2022/04/09 08:54:47;;;;;;;4.13;0.90;;;;;;;4.00;100.00;98760.59;7394618;19;20427;-45
2022/04/09 08:57:20;;;;;;;4.30;2.20;;;;;;;4.25;100.00;98756.38;7403295;19;20753;-44
2022/04/09 08:59:51;;;;;;;5.80;1.63;;;;;;;4.38;100.00;98748.31;7384682;19;20410;-43
2022/04/09 09:02:21;;;;;;;6.30;2.07;;;;;;;4.46;100.00;98744.31;7398992;19;20384;-47
2022/04/09 09:04:50;;;;;;;2.40;1.10;;;;;;;4.97;100.00;98732.34;7392629;19;20423;-47
2022/04/09 09:07:25;;;;;;;4.60;0.77;;;;;;;4.78;100.00;98743.69;7398402;19;20734;-49
2022/04/09 09:09:55;;;;;;;9.00;1.50;;;;;;;4.76;100.00;98747.00;7387014;19;20432;-46
2022/04/09 09:12:35;;;;;;;6.20;1.10;;;;;;;4.73;100.00;98758.84;7398540;19;20396;-48
2022/04/09 09:15:07;;;;;;;7.73;1.30;;;;;;;4.82;100.00;98742.94;7397028;19;20451;-46
2022/04/09 09:17:37;;;;;;;8.63;1.40;;;;;;;4.95;100.00;98759.56;7402002;19;20411;-50
2022/04/09 09:20:14;;;;;;;18.93;2.67;;;;;;;5.09;100.00;98744.63;7398885;19;20451;-46
2022/04/09 09:22:44;;;;;;;12.73;4.57;;;;;;;5.08;100.00;98724.16;7396936;19;20503;-45
2022/04/09 09:25:14;;;;;;;9.83;2.90;;;;;;;4.85;100.00;98704.72;7399580;19;20411;-47
2022/04/09 09:27:46;;;;;;;6.13;2.40;;;;;;;4.16;100.00;98762.00;7387955;19;20394;-46
2022/04/09 09:30:16;;;;;;;7.70;1.67;;;;;;;3.58;100.00;98757.38;7399984;19;20382;-48
2022/04/09 09:32:46;;;;;;;10.67;2.33;;;;;;;3.37;100.00;98758.31;7392958;19;20873;-44
2022/04/09 09:35:16;;;;;;;1.70;0.50;;;;;;;3.42;100.00;98775.44;7396683;19;20391;-43
2022/04/09 09:37:46;;;;;;;6.90;1.47;;;;;;;3.50;100.00;98772.38;7388838;19;20402;-47
2022/04/09 09:40:33;;;;;;;3.00;0.70;;;;;;;3.56;100.00;98761.56;7396499;19;20475;-51
2022/04/09 09:43:18;;;;;;;7.73;1.73;;;;;;;3.62;100.00;98766.88;7391480;19;20490;-48
2022/04/09 09:45:48;;;;;;;15.53;2.67;;;;;;;3.61;100.00;98784.69;7398105;19;20440;-48
2022/04/09 09:48:25;;;;;;;8.20;2.33;;;;;;;3.57;100.00;98786.25;7388506;19;20434;-46
2022/04/09 09:50:55;;;;;;;8.50;1.63;;;;;;;3.50;100.00;98785.13;7399918;19;20398;-49
2022/04/09 09:53:33;;;;;;;9.13;1.60;;;;;;;3.48;100.00;98806.28;7382420;19;20415;-46
2022/04/09 09:56:04;;;;;;;6.13;1.37;;;;;;;3.66;100.00;98795.94;7396508;19;20376;-46
2022/04/09 09:58:39;;;;;;;5.97;1.30;;;;;;;3.74;100.00;98796.22;7384070;19;20442;-51
2022/04/09 10:01:18;;;;;;;3.50;1.50;;;;;;;3.90;100.00;98805.31;7395203;19;20433;-45
2022/04/09 10:03:48;;;;;;;18.03;5.53;;;;;;;3.86;100.00;98798.34;7390976;19;20494;-49
2022/04/09 10:06:18;;;;;;;20.70;7.70;;;;;;;3.88;100.00;98824.78;7398470;19;20400;-45
2022/04/09 10:08:47;;;;;;;8.20;1.20;;;;;;;3.95;100.00;98829.31;7383041;19;20426;-46
2022/04/09 10:11:18;;;;;;;5.93;1.40;;;;;;;4.18;100.00;98826.75;7397434;19;20494;-49
2022/04/09 10:13:50;;;;;;;5.00;1.33;;;;;;;4.48;100.00;98838.88;7386761;19;20434;-54
2022/04/09 10:16:21;;;;;;;13.07;2.30;;;;;;;4.42;100.00;98861.66;7396953;19;20396;-50
2022/04/09 10:18:51;;;;;;;13.17;2.33;;;;;;;4.36;100.00;98869.94;7382018;19;20456;-48
2022/04/09 10:21:21;;;;;;;19.43;5.27;;;;;;;4.51;100.00;98861.13;7398244;19;20386;-48
2022/04/09 10:23:52;;;;;;;9.90;1.77;;;;;;;4.18;100.00;98859.94;7379666;19;20414;-47
2022/04/09 10:26:21;;;;;;;3.20;1.10;;;;;;;3.77;100.00;98870.31;7394107;19;20388;-46
2022/04/09 10:28:54;;;;;;;15.57;4.60;;;;;;;3.42;100.00;98867.22;7388784;19;20411;-47
2022/04/09 10:31:37;;;;;;;4.33;1.23;;;;;;;3.25;100.00;98872.53;7396108;19;20387;-45
2022/04/09 10:34:10;;;;;;;12.20;3.67;;;;;;;3.12;100.00;98878.78;7391540;19;20954;-45
2022/04/09 10:37:09;;;;;;;5.83;1.00;;;;;;;2.84;100.00;98887.84;7397992;19;20380;-48
2022/04/09 10:39:46;;;;;;;4.23;1.30;;;;;;;2.86;100.00;98895.53;7387256;19;20411;-46
2022/04/09 10:42:46;;;;;;;7.60;2.07;;;;;;;2.81;100.00;98885.13;7394213;19;20388;-46
2022/04/09 10:45:18;;;;;;;5.17;1.40;;;;;;;2.82;100.00;98895.41;7395287;19;20810;-45
2022/04/09 10:48:10;;;;;;;16.93;2.73;;;;;;;3.08;100.00;98892.22;7386897;19;20383;-43
2022/04/09 10:50:56;;;;;;;5.10;2.20;;;;;;;3.21;100.00;98863.88;7394402;19;20741;-45
2022/04/09 10:53:28;;;;;;;4.70;1.20;;;;;;;3.28;100.00;98854.78;7390439;19;20425;-48
2022/04/09 10:56:20;;;;;;;3.83;1.47;;;;;;;3.49;100.00;98856.50;7395645;19;20969;-45
2022/04/09 10:59:08;;;;;;;4.70;1.10;;;;;;;3.60;100.00;98878.16;7378458;19;20509;-45
2022/04/09 11:01:56;;;;;;;4.03;1.63;;;;;;;4.20;100.00;98871.06;7398099;19;20467;-46
2022/04/09 11:04:44;;;;;;;11.13;1.53;;;;;;;4.23;100.00;98850.78;7388883;19;20442;-51
2022/04/09 11:07:19;;;;;;;4.80;1.97;;;;;;;4.24;100.00;98878.03;7396274;19;20399;-48
2022/04/09 11:09:51;;;;;;;7.83;3.23;;;;;;;4.51;100.00;98871.34;7389021;19;20417;-45
2022/04/09 11:12:24;;;;;;;4.17;1.23;;;;;;;4.43;100.00;98894.03;7398019;19;20463;-44
2022/04/09 11:14:55;;;;;;;11.00;5.40;;;;;;;4.54;100.00;98881.66;7391707;19;20436;-46
2022/04/09 11:17:30;;;;;;;10.30;3.73;;;;;;;4.66;100.00;98871.88;7398220;19;20387;-47
2022/04/09 11:20:04;;;;;;;9.73;1.77;;;;;;;4.60;100.00;98869.09;7384314;19;20949;-48
2022/04/09 11:22:35;;;;;;;17.07;4.07;;;;;;;4.66;100.00;98888.91;7397847;19;20394;-48
2022/04/09 11:25:07;;;;;;;4.57;1.30;;;;;;;4.62;100.00;98910.91;7392968;19;20419;-45
2022/04/09 11:27:37;;;;;;;12.47;3.97;;;;;;;4.80;100.00;98899.59;7391457;19;20726;-48
2022/04/09 11:30:09;;;;;;;5.93;1.00;;;;;;;4.73;100.00;98919.81;7391322;19;20411;-47
2022/04/09 11:32:41;;;;;;;9.60;1.33;;;;;;;5.05;100.00;98910.66;7385321;19;20723;-48
2022/04/09 11:35:13;;;;;;;15.00;5.70;;;;;;;5.17;100.00;98900.84;7392873;19;20388;-49
2022/04/09 11:37:43;;;;;;;14.37;3.53;;;;;;;5.24;100.00;98882.34;7386922;19;20839;-50
2022/04/09 11:40:16;;;;;;;19.33;5.00;;;;;;;5.15;100.00;98876.94;7391145;19;20435;-48
2022/04/09 11:42:47;;;;;;;42.40;15.80;;;;;;;4.83;100.00;98910.78;7384064;19;20388;-47
2022/04/09 11:45:21;;;;;;;12.83;4.57;;;;;;;4.06;100.00;98893.53;7392747;19;20399;-51
2022/04/09 11:47:57;;;;;;;10.27;3.50;;;;;;;3.68;100.00;98915.88;7386570;19;20455;-48
2022/04/09 11:50:28;;;;;;;11.13;2.07;;;;;;;3.76;100.00;98919.59;7392510;19;20387;-51